sensor_id;sensor_type;location;lat;lon;timestamp;temperature;humidity
16327;DHT22;34812;49.846;9.610;2023-04-25T00:00:30;8.50;99.90
16327;DHT22;34812;49.846;9.610;2023-04-25T00:01:31;8.50;99.90
16327;DHT22;34812;49.846;9.610;2023-04-25T00:02:34;8.50;99.90
16327;DHT22;34812;49.846;9.610;2023-04-25T00:03:35;8.50;99.90
16327;DHT22;34812;49.846;9.610;2023-04-25T00:04:38;8.50;99.90
16327;DHT22;34812;49.846;9.610;2023-04-25T00:05:39;8.50;99.90
16327;DHT22;34812;49.846;9.610;2023-04-25T00:06:41;8.50;99.90
16327;DHT22;34812;49.846;9.610;2023-04-25T00:07:42;8.50;99.90
16327;DHT22;34812;49.846;9.610;2023-04-25T00:08:44;8.50;99.90
16327;DHT22;34812;49.846;9.610;2023-04-25T00:09:44;8.50;99.90
16327;DHT22;34812;49.846;9.610;2023-04-25T00:10:46;8.50;99.90
16327;DHT22;34812;49.846;9.610;2023-04-25T00:11:47;8.50;99.90
16327;DHT22;34812;49.846;9.610;2023-04-25T00:12:49;8.40;99.90
16327;DHT22;34812;49.846;9.610;2023-04-25T00:13:50;8.40;99.90
16327;DHT22;34812;49.846;9.610;2023-04-25T00:14:52;8.40;99.90
16327;DHT22;34812;49.846;9.610;2023-04-25T00:15:53;8.40;99.90
16327;DHT22;34812;49.846;9.610;2023-04-25T00:16:55;8.40;99.90
16327;DHT22;34812;49.846;9.610;2023-04-25T00:17:55;8.40;99.90
16327;DHT22;34812;49.846;9.610;2023-04-25T00:18:57;8.40;99.90
16327;DHT22;34812;49.846;9.610;2023-04-25T00:20:00;8.40;99.90
16327;DHT22;34812;49.846;9.610;2023-04-25T00:21:05;8.40;99.90
16327;DHT22;34812;49.846;9.610;2023-04-25T00:22:06;8.40;99.90
16327;DHT22;34812;49.846;9.610;2023-04-25T00:23:08;8.30;99.90
16327;DHT22;34812;49.846;9.610;2023-04-25T00:24:10;8.40;99.90
16327;DHT22;34812;49.846;9.610;2023-04-25T00:25:12;8.40;99.90
16327;DHT22;34812;49.846;9.610;2023-04-25T00:26:13;8.40;99.90
16327;DHT22;34812;49.846;9.610;2023-04-25T00:27:15;8.40;99.90
16327;DHT22;34812;49.846;9.610;2023-04-25T00:28:16;8.40;99.90
16327;DHT22;34812;49.846;9.610;2023-04-25T00:29:17;8.40;99.90
16327;DHT22;34812;49.846;9.610;2023-04-25T00:30:18;8.40;99.90
16327;DHT22;34812;49.846;9.610;2023-04-25T00:31:20;8.40;99.90
16327;DHT22;34812;49.846;9.610;2023-04-25T00:32:21;8.40;99.90
16327;DHT22;34812;49.846;9.610;2023-04-25T00:33:23;8.40;99.90
16327;DHT22;34812;49.846;9.610;2023-04-25T00:34:23;8.30;99.90
16327;DHT22;34812;49.846;9.610;2023-04-25T00:35:27;8.30;99.90
16327;DHT22;34812;49.846;9.610;2023-04-25T00:36:27;8.30;99.90
16327;DHT22;34812;49.846;9.610;2023-04-25T00:37:29;8.30;99.90
16327;DHT22;34812;49.846;9.610;2023-04-25T00:38:30;8.30;99.90
16327;DHT22;34812;49.846;9.610;2023-04-25T00:39:32;8.30;99.90
16327;DHT22;34812;49.846;9.610;2023-04-25T00:40:33;8.30;99.90
16327;DHT22;34812;49.846;9.610;2023-04-25T00:41:35;8.30;99.90
16327;DHT22;34812;49.846;9.610;2023-04-25T00:42:37;8.30;99.90
16327;DHT22;34812;49.846;9.610;2023-04-25T00:43:39;8.30;99.90
16327;DHT22;34812;49.846;9.610;2023-04-25T00:44:41;8.30;99.90
16327;DHT22;34812;49.846;9.610;2023-04-25T00:45:44;8.30;99.90
16327;DHT22;34812;49.846;9.610;2023-04-25T00:46:47;8.30;99.90
16327;DHT22;34812;49.846;9.610;2023-04-25T00:47:49;8.30;99.90
16327;DHT22;34812;49.846;9.610;2023-04-25T00:48:50;8.30;99.90
16327;DHT22;34812;49.846;9.610;2023-04-25T00:49:52;8.20;99.90
16327;DHT22;34812;49.846;9.610;2023-04-25T00:50:57;8.30;99.90
16327;DHT22;34812;49.846;9.610;2023-04-25T00:51:59;8.30;99.90
16327;DHT22;34812;49.846;9.610;2023-04-25T00:53:01;8.30;99.90
16327;DHT22;34812;49.846;9.610;2023-04-25T00:54:03;8.20;99.90
16327;DHT22;34812;49.846;9.610;2023-04-25T00:55:05;8.30;99.90
16327;DHT22;34812;49.846;9.610;2023-04-25T00:56:06;8.20;99.90
16327;DHT22;34812;49.846;9.610;2023-04-25T00:57:08;8.30;99.90
16327;DHT22;34812;49.846;9.610;2023-04-25T00:58:09;8.30;99.90
16327;DHT22;34812;49.846;9.610;2023-04-25T00:59:10;8.30;99.90
16327;DHT22;34812;49.846;9.610;2023-04-25T01:00:14;8.20;99.90
16327;DHT22;34812;49.846;9.610;2023-04-25T01:01:16;8.20;99.90
16327;DHT22;34812;49.846;9.610;2023-04-25T01:02:17;8.20;99.90
16327;DHT22;34812;49.846;9.610;2023-04-25T01:03:19;8.20;99.90
16327;DHT22;34812;49.846;9.610;2023-04-25T01:04:20;8.20;99.90
16327;DHT22;34812;49.846;9.610;2023-04-25T01:05:22;8.20;99.90
16327;DHT22;34812;49.846;9.610;2023-04-25T01:06:24;8.20;99.90
16327;DHT22;34812;49.846;9.610;2023-04-25T01:07:27;8.20;99.90
16327;DHT22;34812;49.846;9.610;2023-04-25T01:08:28;8.20;99.90
16327;DHT22;34812;49.846;9.610;2023-04-25T01:09:30;8.10;99.90
16327;DHT22;34812;49.846;9.610;2023-04-25T01:10:31;8.10;99.90
16327;DHT22;34812;49.846;9.610;2023-04-25T01:11:33;8.10;99.90
16327;DHT22;34812;49.846;9.610;2023-04-25T01:12:34;8.20;99.90
16327;DHT22;34812;49.846;9.610;2023-04-25T01:13:36;8.20;99.90
16327;DHT22;34812;49.846;9.610;2023-04-25T01:14:37;8.20;99.90
16327;DHT22;34812;49.846;9.610;2023-04-25T01:15:39;8.20;99.90
16327;DHT22;34812;49.846;9.610;2023-04-25T01:16:40;8.20;99.90
16327;DHT22;34812;49.846;9.610;2023-04-25T01:17:43;8.20;99.90
16327;DHT22;34812;49.846;9.610;2023-04-25T01:18:45;8.10;99.90
16327;DHT22;34812;49.846;9.610;2023-04-25T01:19:48;8.10;99.90
16327;DHT22;34812;49.846;9.610;2023-04-25T01:20:50;8.10;99.90
16327;DHT22;34812;49.846;9.610;2023-04-25T01:21:55;8.10;99.90
16327;DHT22;34812;49.846;9.610;2023-04-25T01:22:56;8.10;99.90
16327;DHT22;34812;49.846;9.610;2023-04-25T01:23:58;8.10;99.90
16327;DHT22;34812;49.846;9.610;2023-04-25T01:24:59;8.00;99.90
16327;DHT22;34812;49.846;9.610;2023-04-25T01:26:02;8.00;99.90
16327;DHT22;34812;49.846;9.610;2023-04-25T01:27:04;8.00;99.90
16327;DHT22;34812;49.846;9.610;2023-04-25T01:28:06;8.00;99.90
16327;DHT22;34812;49.846;9.610;2023-04-25T01:29:07;8.00;99.90
16327;DHT22;34812;49.846;9.610;2023-04-25T01:30:10;8.00;99.90
16327;DHT22;34812;49.846;9.610;2023-04-25T01:31:12;8.00;99.90
16327;DHT22;34812;49.846;9.610;2023-04-25T01:32:15;8.00;99.90
16327;DHT22;34812;49.846;9.610;2023-04-25T01:33:17;7.90;99.90
16327;DHT22;34812;49.846;9.610;2023-04-25T01:34:20;7.90;99.90
16327;DHT22;34812;49.846;9.610;2023-04-25T01:35:21;7.90;99.90
16327;DHT22;34812;49.846;9.610;2023-04-25T01:36:28;7.90;99.90
16327;DHT22;34812;49.846;9.610;2023-04-25T01:37:30;7.90;99.90
16327;DHT22;34812;49.846;9.610;2023-04-25T01:38:32;7.90;99.90
16327;DHT22;34812;49.846;9.610;2023-04-25T01:39:34;7.80;99.90
16327;DHT22;34812;49.846;9.610;2023-04-25T01:40:38;7.90;99.90
16327;DHT22;34812;49.846;9.610;2023-04-25T01:41:41;7.80;99.90
16327;DHT22;34812;49.846;9.610;2023-04-25T01:42:43;7.80;99.90
16327;DHT22;34812;49.846;9.610;2023-04-25T01:43:45;7.90;99.90
16327;DHT22;34812;49.846;9.610;2023-04-25T01:44:46;7.80;99.90
16327;DHT22;34812;49.846;9.610;2023-04-25T01:45:48;7.80;99.90
16327;DHT22;34812;49.846;9.610;2023-04-25T01:46:50;7.80;99.90
16327;DHT22;34812;49.846;9.610;2023-04-25T01:47:51;7.80;99.90
16327;DHT22;34812;49.846;9.610;2023-04-25T01:48:53;7.80;99.90
16327;DHT22;34812;49.846;9.610;2023-04-25T01:49:55;7.80;99.90
16327;DHT22;34812;49.846;9.610;2023-04-25T01:50:57;7.80;99.90
16327;DHT22;34812;49.846;9.610;2023-04-25T01:51:58;7.80;99.90
16327;DHT22;34812;49.846;9.610;2023-04-25T01:53:01;7.80;99.90
16327;DHT22;34812;49.846;9.610;2023-04-25T01:54:02;7.80;99.90
16327;DHT22;34812;49.846;9.610;2023-04-25T01:55:06;7.80;99.90
16327;DHT22;34812;49.846;9.610;2023-04-25T01:56:09;7.80;99.90
16327;DHT22;34812;49.846;9.610;2023-04-25T01:57:11;7.80;99.90
16327;DHT22;34812;49.846;9.610;2023-04-25T01:58:13;7.80;99.90
16327;DHT22;34812;49.846;9.610;2023-04-25T01:59:34;7.70;99.90
16327;DHT22;34812;49.846;9.610;2023-04-25T02:00:50;7.70;99.90
16327;DHT22;34812;49.846;9.610;2023-04-25T02:01:52;7.80;99.90
16327;DHT22;34812;49.846;9.610;2023-04-25T02:03:01;7.70;99.90
16327;DHT22;34812;49.846;9.610;2023-04-25T02:04:07;7.70;99.90
16327;DHT22;34812;49.846;9.610;2023-04-25T02:05:10;7.70;99.90
16327;DHT22;34812;49.846;9.610;2023-04-25T02:06:14;7.70;99.90
16327;DHT22;34812;49.846;9.610;2023-04-25T02:07:18;7.60;99.90
16327;DHT22;34812;49.846;9.610;2023-04-25T02:08:27;7.60;99.90
16327;DHT22;34812;49.846;9.610;2023-04-25T02:09:29;7.60;99.90
16327;DHT22;34812;49.846;9.610;2023-04-25T02:10:32;7.60;99.90
16327;DHT22;34812;49.846;9.610;2023-04-25T02:11:49;7.60;99.90
16327;DHT22;34812;49.846;9.610;2023-04-25T02:13:11;7.60;99.90
16327;DHT22;34812;49.846;9.610;2023-04-25T02:14:23;7.50;99.90
16327;DHT22;34812;49.846;9.610;2023-04-25T02:15:36;7.60;99.90
16327;DHT22;34812;49.846;9.610;2023-04-25T02:16:48;7.50;99.90
16327;DHT22;34812;49.846;9.610;2023-04-25T02:17:52;7.50;99.90
16327;DHT22;34812;49.846;9.610;2023-04-25T02:18:53;7.60;99.90
16327;DHT22;34812;49.846;9.610;2023-04-25T02:19:54;7.60;99.90
16327;DHT22;34812;49.846;9.610;2023-04-25T02:20:55;7.60;99.90
16327;DHT22;34812;49.846;9.610;2023-04-25T02:21:57;7.60;99.90
16327;DHT22;34812;49.846;9.610;2023-04-25T02:22:58;7.60;99.90
16327;DHT22;34812;49.846;9.610;2023-04-25T02:24:04;7.70;99.90
16327;DHT22;34812;49.846;9.610;2023-04-25T02:25:06;7.70;99.90
16327;DHT22;34812;49.846;9.610;2023-04-25T02:26:07;7.70;99.90
16327;DHT22;34812;49.846;9.610;2023-04-25T02:27:08;7.70;99.90
16327;DHT22;34812;49.846;9.610;2023-04-25T02:28:10;7.70;99.90
16327;DHT22;34812;49.846;9.610;2023-04-25T02:29:11;7.70;99.90
16327;DHT22;34812;49.846;9.610;2023-04-25T02:30:16;7.70;99.90
16327;DHT22;34812;49.846;9.610;2023-04-25T02:31:18;7.70;99.90
16327;DHT22;34812;49.846;9.610;2023-04-25T02:32:19;7.70;99.90
16327;DHT22;34812;49.846;9.610;2023-04-25T02:33:21;7.70;99.90
16327;DHT22;34812;49.846;9.610;2023-04-25T02:34:22;7.70;99.90
16327;DHT22;34812;49.846;9.610;2023-04-25T02:35:24;7.70;99.90
16327;DHT22;34812;49.846;9.610;2023-04-25T02:36:27;7.70;99.90
16327;DHT22;34812;49.846;9.610;2023-04-25T02:37:31;7.70;99.90
16327;DHT22;34812;49.846;9.610;2023-04-25T02:38:32;7.70;99.90
16327;DHT22;34812;49.846;9.610;2023-04-25T02:39:35;7.70;99.90
16327;DHT22;34812;49.846;9.610;2023-04-25T02:40:35;7.70;99.90
16327;DHT22;34812;49.846;9.610;2023-04-25T02:41:37;7.70;99.90
16327;DHT22;34812;49.846;9.610;2023-04-25T02:42:38;7.70;99.90
16327;DHT22;34812;49.846;9.610;2023-04-25T02:43:40;7.60;99.90
16327;DHT22;34812;49.846;9.610;2023-04-25T02:44:41;7.60;99.90
16327;DHT22;34812;49.846;9.610;2023-04-25T02:45:43;7.60;99.90
16327;DHT22;34812;49.846;9.610;2023-04-25T02:46:43;7.60;99.90
16327;DHT22;34812;49.846;9.610;2023-04-25T02:47:45;7.60;99.90
16327;DHT22;34812;49.846;9.610;2023-04-25T02:48:46;7.60;99.90
16327;DHT22;34812;49.846;9.610;2023-04-25T02:49:47;7.60;99.90
16327;DHT22;34812;49.846;9.610;2023-04-25T02:50:48;7.60;99.90
16327;DHT22;34812;49.846;9.610;2023-04-25T02:51:50;7.60;99.90
16327;DHT22;34812;49.846;9.610;2023-04-25T02:52:51;7.60;99.90
16327;DHT22;34812;49.846;9.610;2023-04-25T02:53:58;7.60;99.90
16327;DHT22;34812;49.846;9.610;2023-04-25T02:55:01;7.60;99.90
16327;DHT22;34812;49.846;9.610;2023-04-25T02:56:04;7.60;99.90
16327;DHT22;34812;49.846;9.610;2023-04-25T02:57:05;7.60;99.90
16327;DHT22;34812;49.846;9.610;2023-04-25T02:58:10;7.70;99.90
16327;DHT22;34812;49.846;9.610;2023-04-25T02:59:19;7.60;99.90
16327;DHT22;34812;49.846;9.610;2023-04-25T03:00:21;7.60;99.90
16327;DHT22;34812;49.846;9.610;2023-04-25T03:01:23;7.70;99.90
16327;DHT22;34812;49.846;9.610;2023-04-25T03:02:24;7.60;99.90
16327;DHT22;34812;49.846;9.610;2023-04-25T03:03:26;7.60;99.90
16327;DHT22;34812;49.846;9.610;2023-04-25T03:04:27;7.60;99.90
16327;DHT22;34812;49.846;9.610;2023-04-25T03:05:29;7.60;99.90
16327;DHT22;34812;49.846;9.610;2023-04-25T03:06:30;7.60;99.90
16327;DHT22;34812;49.846;9.610;2023-04-25T03:07:32;7.70;99.90
16327;DHT22;34812;49.846;9.610;2023-04-25T03:08:33;7.70;99.90
16327;DHT22;34812;49.846;9.610;2023-04-25T03:09:36;7.70;99.90
16327;DHT22;34812;49.846;9.610;2023-04-25T03:10:38;7.60;99.90
16327;DHT22;34812;49.846;9.610;2023-04-25T03:11:43;7.70;99.90
16327;DHT22;34812;49.846;9.610;2023-04-25T03:12:44;7.70;99.90
16327;DHT22;34812;49.846;9.610;2023-04-25T03:13:46;7.70;99.90
16327;DHT22;34812;49.846;9.610;2023-04-25T03:14:48;7.70;99.90
16327;DHT22;34812;49.846;9.610;2023-04-25T03:15:50;7.70;99.90
16327;DHT22;34812;49.846;9.610;2023-04-25T03:16:52;7.70;99.90
16327;DHT22;34812;49.846;9.610;2023-04-25T03:17:54;7.70;99.90
16327;DHT22;34812;49.846;9.610;2023-04-25T03:18:55;7.70;99.90
16327;DHT22;34812;49.846;9.610;2023-04-25T03:19:57;7.70;99.90
16327;DHT22;34812;49.846;9.610;2023-04-25T03:20:58;7.70;99.90
16327;DHT22;34812;49.846;9.610;2023-04-25T03:22:00;7.60;99.90
16327;DHT22;34812;49.846;9.610;2023-04-25T03:23:01;7.60;99.90
16327;DHT22;34812;49.846;9.610;2023-04-25T03:24:04;7.60;99.90
16327;DHT22;34812;49.846;9.610;2023-04-25T03:25:07;7.60;99.90
16327;DHT22;34812;49.846;9.610;2023-04-25T03:26:10;7.60;99.90
16327;DHT22;34812;49.846;9.610;2023-04-25T03:27:11;7.60;99.90
16327;DHT22;34812;49.846;9.610;2023-04-25T03:28:13;7.60;99.90
16327;DHT22;34812;49.846;9.610;2023-04-25T03:29:14;7.60;99.90
16327;DHT22;34812;49.846;9.610;2023-04-25T03:30:17;7.60;99.90
16327;DHT22;34812;49.846;9.610;2023-04-25T03:31:19;7.60;99.90
16327;DHT22;34812;49.846;9.610;2023-04-25T03:32:21;7.60;99.90
16327;DHT22;34812;49.846;9.610;2023-04-25T03:33:22;7.60;99.90
16327;DHT22;34812;49.846;9.610;2023-04-25T03:34:24;7.60;99.90
16327;DHT22;34812;49.846;9.610;2023-04-25T03:35:25;7.60;99.90
16327;DHT22;34812;49.846;9.610;2023-04-25T03:36:26;7.60;99.90
16327;DHT22;34812;49.846;9.610;2023-04-25T03:37:28;7.60;99.90
16327;DHT22;34812;49.846;9.610;2023-04-25T03:38:29;7.60;99.90
16327;DHT22;34812;49.846;9.610;2023-04-25T03:39:32;7.60;99.90
16327;DHT22;34812;49.846;9.610;2023-04-25T03:40:33;7.60;99.90
16327;DHT22;34812;49.846;9.610;2023-04-25T03:41:57;7.60;99.90
16327;DHT22;34812;49.846;9.610;2023-04-25T03:42:59;7.60;99.90
16327;DHT22;34812;49.846;9.610;2023-04-25T03:43:59;7.60;99.90
16327;DHT22;34812;49.846;9.610;2023-04-25T03:45:01;7.60;99.90
16327;DHT22;34812;49.846;9.610;2023-04-25T03:46:02;7.60;99.90
16327;DHT22;34812;49.846;9.610;2023-04-25T03:47:04;7.60;99.90
16327;DHT22;34812;49.846;9.610;2023-04-25T03:48:05;7.60;99.90
16327;DHT22;34812;49.846;9.610;2023-04-25T03:49:07;7.70;99.90
16327;DHT22;34812;49.846;9.610;2023-04-25T03:50:26;7.70;99.90
16327;DHT22;34812;49.846;9.610;2023-04-25T03:51:28;7.70;99.90
16327;DHT22;34812;49.846;9.610;2023-04-25T03:52:29;7.60;99.90
16327;DHT22;34812;49.846;9.610;2023-04-25T03:53:31;7.60;99.90
16327;DHT22;34812;49.846;9.610;2023-04-25T03:54:50;7.60;99.90
16327;DHT22;34812;49.846;9.610;2023-04-25T03:55:54;7.70;99.90
16327;DHT22;34812;49.846;9.610;2023-04-25T03:56:56;7.70;99.90
16327;DHT22;34812;49.846;9.610;2023-04-25T03:58:01;7.60;99.90
16327;DHT22;34812;49.846;9.610;2023-04-25T03:59:02;7.60;99.90
16327;DHT22;34812;49.846;9.610;2023-04-25T04:00:06;7.60;99.90
16327;DHT22;34812;49.846;9.610;2023-04-25T04:01:14;7.60;99.90
16327;DHT22;34812;49.846;9.610;2023-04-25T04:02:17;7.60;99.90
16327;DHT22;34812;49.846;9.610;2023-04-25T04:03:18;7.60;99.90
16327;DHT22;34812;49.846;9.610;2023-04-25T04:04:20;7.60;99.90
16327;DHT22;34812;49.846;9.610;2023-04-25T04:05:21;7.70;99.90
16327;DHT22;34812;49.846;9.610;2023-04-25T04:06:28;7.70;99.90
16327;DHT22;34812;49.846;9.610;2023-04-25T04:07:37;7.70;99.90
16327;DHT22;34812;49.846;9.610;2023-04-25T04:08:42;7.80;99.90
16327;DHT22;34812;49.846;9.610;2023-04-25T04:09:44;7.70;99.90
16327;DHT22;34812;49.846;9.610;2023-04-25T04:10:56;7.70;99.90
16327;DHT22;34812;49.846;9.610;2023-04-25T04:11:59;7.70;99.90
16327;DHT22;34812;49.846;9.610;2023-04-25T04:13:03;7.70;99.90
16327;DHT22;34812;49.846;9.610;2023-04-25T04:14:04;7.70;99.90
16327;DHT22;34812;49.846;9.610;2023-04-25T04:15:07;7.70;99.90
16327;DHT22;34812;49.846;9.610;2023-04-25T04:16:09;7.70;99.90
16327;DHT22;34812;49.846;9.610;2023-04-25T04:17:11;7.70;99.90
16327;DHT22;34812;49.846;9.610;2023-04-25T04:18:12;7.70;99.90
16327;DHT22;34812;49.846;9.610;2023-04-25T04:19:14;7.70;99.90
16327;DHT22;34812;49.846;9.610;2023-04-25T04:20:20;7.70;99.90
16327;DHT22;34812;49.846;9.610;2023-04-25T04:21:21;7.70;99.90
16327;DHT22;34812;49.846;9.610;2023-04-25T04:22:22;7.70;99.90
16327;DHT22;34812;49.846;9.610;2023-04-25T04:23:26;7.70;99.90
16327;DHT22;34812;49.846;9.610;2023-04-25T04:24:28;7.70;99.90
16327;DHT22;34812;49.846;9.610;2023-04-25T04:25:35;7.70;99.90
16327;DHT22;34812;49.846;9.610;2023-04-25T04:26:54;7.70;99.90
16327;DHT22;34812;49.846;9.610;2023-04-25T04:28:24;7.70;99.90
16327;DHT22;34812;49.846;9.610;2023-04-25T04:29:34;7.70;99.90
16327;DHT22;34812;49.846;9.610;2023-04-25T04:30:50;7.70;99.90
16327;DHT22;34812;49.846;9.610;2023-04-25T04:31:53;7.70;99.90
16327;DHT22;34812;49.846;9.610;2023-04-25T04:32:54;7.70;99.90
16327;DHT22;34812;49.846;9.610;2023-04-25T04:33:56;7.70;99.90
16327;DHT22;34812;49.846;9.610;2023-04-25T04:34:57;7.70;99.90
16327;DHT22;34812;49.846;9.610;2023-04-25T04:36:00;7.70;99.90
16327;DHT22;34812;49.846;9.610;2023-04-25T04:37:02;7.70;99.90
16327;DHT22;34812;49.846;9.610;2023-04-25T04:38:04;7.70;99.90
16327;DHT22;34812;49.846;9.610;2023-04-25T04:39:08;7.70;99.90
16327;DHT22;34812;49.846;9.610;2023-04-25T04:40:18;7.70;99.90
16327;DHT22;34812;49.846;9.610;2023-04-25T04:41:36;7.60;99.90
16327;DHT22;34812;49.846;9.610;2023-04-25T04:42:46;7.70;99.90
16327;DHT22;34812;49.846;9.610;2023-04-25T04:44:02;7.70;99.90
16327;DHT22;34812;49.846;9.610;2023-04-25T04:45:24;7.70;99.90
16327;DHT22;34812;49.846;9.610;2023-04-25T04:46:40;7.70;99.90
16327;DHT22;34812;49.846;9.610;2023-04-25T04:48:01;7.80;99.90
16327;DHT22;34812;49.846;9.610;2023-04-25T04:49:21;7.70;99.90
16327;DHT22;34812;49.846;9.610;2023-04-25T04:50:43;7.70;99.90
16327;DHT22;34812;49.846;9.610;2023-04-25T04:51:58;7.80;99.90
16327;DHT22;34812;49.846;9.610;2023-04-25T04:53:36;7.70;99.90
16327;DHT22;34812;49.846;9.610;2023-04-25T04:54:47;7.80;99.90
16327;DHT22;34812;49.846;9.610;2023-04-25T04:56:01;7.80;99.90
16327;DHT22;34812;49.846;9.610;2023-04-25T04:57:22;7.80;99.90
16327;DHT22;34812;49.846;9.610;2023-04-25T04:58:48;7.80;99.90
16327;DHT22;34812;49.846;9.610;2023-04-25T05:00:12;7.90;99.90
16327;DHT22;34812;49.846;9.610;2023-04-25T05:01:27;7.90;99.90
16327;DHT22;34812;49.846;9.610;2023-04-25T05:02:33;8.00;99.90
16327;DHT22;34812;49.846;9.610;2023-04-25T05:03:52;8.00;99.90
16327;DHT22;34812;49.846;9.610;2023-04-25T05:05:08;8.00;99.90
16327;DHT22;34812;49.846;9.610;2023-04-25T05:06:24;8.00;99.90
16327;DHT22;34812;49.846;9.610;2023-04-25T05:07:46;7.90;99.90
16327;DHT22;34812;49.846;9.610;2023-04-25T05:09:11;7.90;99.90
16327;DHT22;34812;49.846;9.610;2023-04-25T05:10:29;8.00;99.90
16327;DHT22;34812;49.846;9.610;2023-04-25T05:11:30;8.00;99.90
16327;DHT22;34812;49.846;9.610;2023-04-25T05:12:52;7.90;99.90
16327;DHT22;34812;49.846;9.610;2023-04-25T05:14:17;8.00;99.90
16327;DHT22;34812;49.846;9.610;2023-04-25T05:15:38;8.00;99.90
16327;DHT22;34812;49.846;9.610;2023-04-25T05:16:53;8.00;99.90
16327;DHT22;34812;49.846;9.610;2023-04-25T05:18:04;8.00;99.90
16327;DHT22;34812;49.846;9.610;2023-04-25T05:19:16;8.00;99.90
16327;DHT22;34812;49.846;9.610;2023-04-25T05:20:25;8.10;99.90
16327;DHT22;34812;49.846;9.610;2023-04-25T05:21:26;8.10;99.90
16327;DHT22;34812;49.846;9.610;2023-04-25T05:22:36;8.10;99.90
16327;DHT22;34812;49.846;9.610;2023-04-25T05:23:48;8.10;99.90
16327;DHT22;34812;49.846;9.610;2023-04-25T05:25:19;8.20;99.90
16327;DHT22;34812;49.846;9.610;2023-04-25T05:26:31;8.20;99.90
16327;DHT22;34812;49.846;9.610;2023-04-25T05:27:55;8.20;99.90
16327;DHT22;34812;49.846;9.610;2023-04-25T05:29:25;8.20;99.90
16327;DHT22;34812;49.846;9.610;2023-04-25T05:30:46;8.30;99.90
16327;DHT22;34812;49.846;9.610;2023-04-25T05:32:03;8.30;99.90
16327;DHT22;34812;49.846;9.610;2023-04-25T05:33:05;8.30;99.90
16327;DHT22;34812;49.846;9.610;2023-04-25T05:34:06;8.30;99.90
16327;DHT22;34812;49.846;9.610;2023-04-25T05:35:23;8.30;99.90
16327;DHT22;34812;49.846;9.610;2023-04-25T05:36:25;8.30;99.90
16327;DHT22;34812;49.846;9.610;2023-04-25T05:37:26;8.30;99.90
16327;DHT22;34812;49.846;9.610;2023-04-25T05:38:38;8.30;99.90
16327;DHT22;34812;49.846;9.610;2023-04-25T05:39:41;8.30;99.90
16327;DHT22;34812;49.846;9.610;2023-04-25T05:41:01;8.30;99.90
16327;DHT22;34812;49.846;9.610;2023-04-25T05:42:22;8.30;99.90
16327;DHT22;34812;49.846;9.610;2023-04-25T05:43:27;8.40;99.90
16327;DHT22;34812;49.846;9.610;2023-04-25T05:44:44;8.40;99.90
16327;DHT22;34812;49.846;9.610;2023-04-25T05:45:59;8.40;99.90
16327;DHT22;34812;49.846;9.610;2023-04-25T05:47:05;8.40;99.90
16327;DHT22;34812;49.846;9.610;2023-04-25T05:48:25;8.40;99.90
16327;DHT22;34812;49.846;9.610;2023-04-25T05:49:49;8.40;99.90
16327;DHT22;34812;49.846;9.610;2023-04-25T05:51:02;8.40;99.90
16327;DHT22;34812;49.846;9.610;2023-04-25T05:52:21;8.40;99.90
16327;DHT22;34812;49.846;9.610;2023-04-25T05:53:31;8.50;99.90
16327;DHT22;34812;49.846;9.610;2023-04-25T05:54:35;8.50;99.90
16327;DHT22;34812;49.846;9.610;2023-04-25T05:55:37;8.40;99.90
16327;DHT22;34812;49.846;9.610;2023-04-25T05:56:52;8.40;99.90
16327;DHT22;34812;49.846;9.610;2023-04-25T05:57:54;8.50;99.90
16327;DHT22;34812;49.846;9.610;2023-04-25T05:58:55;8.50;99.90
16327;DHT22;34812;49.846;9.610;2023-04-25T05:59:56;8.50;99.90
16327;DHT22;34812;49.846;9.610;2023-04-25T06:01:15;8.50;99.90
16327;DHT22;34812;49.846;9.610;2023-04-25T06:02:18;8.50;99.90
16327;DHT22;34812;49.846;9.610;2023-04-25T06:03:20;8.60;99.90
16327;DHT22;34812;49.846;9.610;2023-04-25T06:04:22;8.60;99.90
16327;DHT22;34812;49.846;9.610;2023-04-25T06:05:22;8.70;99.90
16327;DHT22;34812;49.846;9.610;2023-04-25T06:06:25;8.80;99.90
16327;DHT22;34812;49.846;9.610;2023-04-25T06:07:28;8.80;99.90
16327;DHT22;34812;49.846;9.610;2023-04-25T06:08:28;8.90;99.90
16327;DHT22;34812;49.846;9.610;2023-04-25T06:09:30;8.90;99.90
16327;DHT22;34812;49.846;9.610;2023-04-25T06:10:31;9.00;99.90
16327;DHT22;34812;49.846;9.610;2023-04-25T06:11:33;9.00;99.90
16327;DHT22;34812;49.846;9.610;2023-04-25T06:12:33;8.90;99.90
16327;DHT22;34812;49.846;9.610;2023-04-25T06:13:37;8.90;99.90
16327;DHT22;34812;49.846;9.610;2023-04-25T06:14:38;8.90;99.90
16327;DHT22;34812;49.846;9.610;2023-04-25T06:15:41;8.90;99.90
16327;DHT22;34812;49.846;9.610;2023-04-25T06:16:43;9.00;99.90
16327;DHT22;34812;49.846;9.610;2023-04-25T06:17:45;9.10;99.90
16327;DHT22;34812;49.846;9.610;2023-04-25T06:18:46;9.10;99.90
16327;DHT22;34812;49.846;9.610;2023-04-25T06:19:48;9.20;99.90
16327;DHT22;34812;49.846;9.610;2023-04-25T06:20:49;9.40;99.90
16327;DHT22;34812;49.846;9.610;2023-04-25T06:21:52;9.60;99.90
16327;DHT22;34812;49.846;9.610;2023-04-25T06:22:53;9.60;99.90
16327;DHT22;34812;49.846;9.610;2023-04-25T06:24:01;9.80;99.90
16327;DHT22;34812;49.846;9.610;2023-04-25T06:25:04;10.10;99.90
16327;DHT22;34812;49.846;9.610;2023-04-25T06:26:07;10.10;99.90
16327;DHT22;34812;49.846;9.610;2023-04-25T06:27:11;10.20;99.90
16327;DHT22;34812;49.846;9.610;2023-04-25T06:28:13;10.20;99.90
16327;DHT22;34812;49.846;9.610;2023-04-25T06:29:15;10.30;99.90
16327;DHT22;34812;49.846;9.610;2023-04-25T06:30:16;10.30;99.90
16327;DHT22;34812;49.846;9.610;2023-04-25T06:31:24;10.30;99.90
16327;DHT22;34812;49.846;9.610;2023-04-25T06:32:27;10.30;99.90
16327;DHT22;34812;49.846;9.610;2023-04-25T06:33:32;10.40;99.90
16327;DHT22;34812;49.846;9.610;2023-04-25T06:34:33;10.40;99.90
16327;DHT22;34812;49.846;9.610;2023-04-25T06:35:36;10.40;99.90
16327;DHT22;34812;49.846;9.610;2023-04-25T06:36:37;10.30;99.90
16327;DHT22;34812;49.846;9.610;2023-04-25T06:37:42;10.20;99.90
16327;DHT22;34812;49.846;9.610;2023-04-25T06:38:43;10.10;99.90
16327;DHT22;34812;49.846;9.610;2023-04-25T06:39:45;9.90;99.90
16327;DHT22;34812;49.846;9.610;2023-04-25T06:40:46;9.90;99.90
16327;DHT22;34812;49.846;9.610;2023-04-25T06:41:48;10.00;99.90
16327;DHT22;34812;49.846;9.610;2023-04-25T06:43:09;10.00;99.90
16327;DHT22;34812;49.846;9.610;2023-04-25T06:44:30;10.00;99.90
16327;DHT22;34812;49.846;9.610;2023-04-25T06:45:32;10.00;99.90
16327;DHT22;34812;49.846;9.610;2023-04-25T06:46:33;10.10;99.90
16327;DHT22;34812;49.846;9.610;2023-04-25T06:47:36;10.10;99.90
16327;DHT22;34812;49.846;9.610;2023-04-25T06:48:37;10.10;99.90
16327;DHT22;34812;49.846;9.610;2023-04-25T06:49:39;10.00;99.90
16327;DHT22;34812;49.846;9.610;2023-04-25T06:50:43;9.90;99.90
16327;DHT22;34812;49.846;9.610;2023-04-25T06:51:46;9.90;99.90
16327;DHT22;34812;49.846;9.610;2023-04-25T06:52:47;9.80;99.90
16327;DHT22;34812;49.846;9.610;2023-04-25T06:53:49;9.80;99.90
16327;DHT22;34812;49.846;9.610;2023-04-25T06:54:59;9.80;99.90
16327;DHT22;34812;49.846;9.610;2023-04-25T06:56:29;9.80;99.90
16327;DHT22;34812;49.846;9.610;2023-04-25T06:57:37;10.00;99.90